Decoded Metar for UKKK (KIEV in UKRAINE) (IATA:IEV) | Meteo·Mobile Aviation Weather
aviador You're here:

UKKK Decoded Metar

KIEV in UKRAINE
Report Time2018-09-18 14:00:00
UTC Time2018-09-18 14:15:27
Flight Rules vfr VFR
Wind290° at 8 kt
W.Decomp.*RWY 26: 7.3 kt HW 3.4 kt RCW
W.Rank290° ranks 9
Current wind is below 290° avg. (9.5)
Visibility9999 m
Phenomena:N/A
Clouds:N/A
Expected CloudBase > 5,200 ft AGL from Temp-Dew spread
CeilingNone
Temp23°C (ISA +9)
Dew Point10°C (44% RH)
AAT20.2°C
QNH1022 hPa
Density Alt1,519 ft
Elevation587 ft
Report Wrong Elevation
Raw Report
METAR UKKK 181400Z 29004MPS 270V350 CAVOK 23/10 Q1022 R26/70D NOSIG=

Extra information for UKKK:More info

Metar Taf Metar & Taf Last 4 Metars F.Rules Stats Wind Profile Meteogram Temp Stats Airport Information Weather charts Add Link Nearby VenuesMetar ALERT Operation Metar Decoded Social comments